createdAt,value
2023-04-12T00:01:12.525Z,1.20
2023-04-12T00:03:42.901Z,1.43
2023-04-12T00:06:11.819Z,1.37
2023-04-12T00:08:42.882Z,1.00
2023-04-12T00:11:11.708Z,1.37
2023-04-12T00:13:40.628Z,1.17
2023-04-12T00:16:10.826Z,1.30
2023-04-12T00:18:39.661Z,1.00
2023-04-12T00:21:10.515Z,1.50
2023-04-12T00:23:39.546Z,1.23
2023-04-12T00:26:08.860Z,1.63
2023-04-12T00:28:37.718Z,1.30
2023-04-12T00:31:07.163Z,1.57
2023-04-12T00:33:36.465Z,1.50
2023-04-12T00:36:05.821Z,1.50
2023-04-12T00:38:36.744Z,1.57
2023-04-12T00:41:05.878Z,1.50
2023-04-12T00:43:34.754Z,1.43
2023-04-12T00:46:04.408Z,1.57
2023-04-12T00:48:33.301Z,1.40
2023-04-12T00:51:04.098Z,1.60
2023-04-12T00:53:34.451Z,1.50
2023-04-12T00:56:05.744Z,1.30
2023-04-12T00:58:34.681Z,1.17
2023-04-12T01:01:03.714Z,1.50
2023-04-12T01:03:32.915Z,1.33
2023-04-12T01:06:15.143Z,1.30
2023-04-12T01:08:59.386Z,1.20
2023-04-12T01:11:39.537Z,1.42
2023-04-12T01:14:15.252Z,1.60
2023-04-12T01:16:51.344Z,1.60
2023-04-12T01:19:53.859Z,1.00
2023-04-12T01:22:47.314Z,1.33
2023-04-12T01:25:39.472Z,1.33
2023-04-12T01:28:16.001Z,1.27
2023-04-12T01:30:47.558Z,1.23
2023-04-12T01:33:20.185Z,1.20
2023-04-12T01:35:52.438Z,1.30
2023-04-12T01:38:22.804Z,1.40
2023-04-12T01:40:51.908Z,1.30
2023-04-12T01:43:22.577Z,1.37
2023-04-12T01:45:51.450Z,1.40
2023-04-12T01:48:20.905Z,1.40
2023-04-12T01:51:01.673Z,1.60
2023-04-12T01:53:44.044Z,1.33
2023-04-12T01:56:14.381Z,1.50
2023-04-12T01:58:50.168Z,1.37
2023-04-12T02:01:20.377Z,1.63
2023-04-12T02:03:51.269Z,1.40
2023-04-12T02:06:21.932Z,1.50
2023-04-12T02:08:51.269Z,1.58
2023-04-12T02:11:20.039Z,1.38
2023-04-12T02:13:50.302Z,1.60
2023-04-12T02:16:20.733Z,1.47
2023-04-12T02:18:49.621Z,1.60
2023-04-12T02:21:18.593Z,1.60
2023-04-12T02:23:47.479Z,1.60
2023-04-12T02:26:16.832Z,1.60
2023-04-12T02:28:47.311Z,1.47
2023-04-12T02:31:17.597Z,1.50
2023-04-12T02:33:46.789Z,1.53
2023-04-12T02:36:15.771Z,1.70
2023-04-12T02:38:44.802Z,1.50
2023-04-12T02:41:19.688Z,1.50
2023-04-12T02:43:48.659Z,1.40
2023-04-12T02:46:23.643Z,1.30
2023-04-12T02:48:53.066Z,1.77
2023-04-12T02:51:22.016Z,1.67
2023-04-12T02:53:51.709Z,1.80
2023-04-12T02:56:21.896Z,1.70
2023-04-12T02:58:50.787Z,1.80
2023-04-12T03:01:21.117Z,2.03
2023-04-12T03:03:50.148Z,1.87
2023-04-12T03:06:18.944Z,1.87
2023-04-12T03:08:48.168Z,1.70
2023-04-12T03:11:17.268Z,1.70
2023-04-12T03:13:46.377Z,2.23
2023-04-12T03:16:30.271Z,2.00
2023-04-12T03:18:59.556Z,2.00
2023-04-12T03:21:29.084Z,1.70
2023-04-12T03:23:58.314Z,2.13
2023-04-12T03:26:27.752Z,2.07
2023-04-12T03:29:02.066Z,1.77
2023-04-12T03:31:32.916Z,1.70
2023-04-12T03:34:01.982Z,1.97
2023-04-12T03:36:32.079Z,2.10
2023-04-12T03:39:01.228Z,7.23
2023-04-12T03:41:30.569Z,4.60
2023-04-12T03:43:59.462Z,4.10
2023-04-12T03:46:28.668Z,5.00
2023-04-12T03:48:59.033Z,4.90
2023-04-12T03:51:30.896Z,8.57
2023-04-12T03:54:00.071Z,3.00
2023-04-12T03:56:29.179Z,3.20
2023-04-12T03:58:58.101Z,2.50
2023-04-12T04:01:27.135Z,2.50
2023-04-12T04:03:56.784Z,2.23
2023-04-12T04:06:27.987Z,2.70
2023-04-12T04:08:58.233Z,2.00
2023-04-12T04:11:28.563Z,2.67
2023-04-12T04:13:57.798Z,2.13
2023-04-12T04:16:27.148Z,2.00
2023-04-12T04:18:56.154Z,2.20
2023-04-12T04:21:26.929Z,2.30
2023-04-12T04:23:55.953Z,3.00
2023-04-12T04:26:33.402Z,2.03
2023-04-12T04:29:03.428Z,2.90
2023-04-12T04:31:34.726Z,2.93
2023-04-12T04:34:05.470Z,2.93
2023-04-12T04:36:38.246Z,3.10
2023-04-12T04:39:07.017Z,2.87
2023-04-12T04:41:39.549Z,2.67
2023-04-12T04:44:10.594Z,2.50
2023-04-12T04:46:39.811Z,2.53
2023-04-12T04:49:09.461Z,2.28
2023-04-12T04:51:39.786Z,2.13
2023-04-12T04:54:08.475Z,2.60
2023-04-12T04:56:37.336Z,2.08
2023-04-12T04:59:06.520Z,2.13
2023-04-12T05:01:36.193Z,1.83
2023-04-12T05:04:05.459Z,1.92
2023-04-12T05:06:34.553Z,1.77
2023-04-12T05:09:05.547Z,1.70
2023-04-12T05:11:34.248Z,1.50
2023-04-12T05:14:02.971Z,1.50
2023-04-12T05:16:31.848Z,1.60
2023-04-12T05:19:00.655Z,1.98
2023-04-12T05:21:29.473Z,1.95
2023-04-12T05:23:58.467Z,2.05
2023-04-12T05:26:28.641Z,2.78
2023-04-12T05:28:57.621Z,2.65
2023-04-12T05:31:27.292Z,1.88
2023-04-12T05:33:56.232Z,1.40
2023-04-12T05:36:25.189Z,1.40
2023-04-12T05:38:53.932Z,1.52
2023-04-12T05:41:22.800Z,1.40
2023-04-12T05:43:52.971Z,1.70
2023-04-12T05:46:21.807Z,1.45
2023-04-12T05:48:50.708Z,1.30
2023-04-12T05:51:25.177Z,1.30
2023-04-12T05:53:59.650Z,1.70
2023-04-12T05:56:28.538Z,1.50
2023-04-12T05:58:58.793Z,1.20
2023-04-12T06:01:32.459Z,2.10
2023-04-12T06:04:02.450Z,1.42
2023-04-12T06:06:31.677Z,1.40
2023-04-12T06:09:02.766Z,1.80
2023-04-12T06:11:32.131Z,1.90
2023-04-12T06:14:02.802Z,1.83
2023-04-12T06:16:32.000Z,1.58
2023-04-12T06:19:01.240Z,1.90
2023-04-12T06:21:30.277Z,1.83
2023-04-12T06:23:59.146Z,1.83
2023-04-12T06:26:32.184Z,1.23
2023-04-12T06:29:09.551Z,1.10
2023-04-12T06:31:38.354Z,1.02
2023-04-12T06:34:07.128Z,1.00
2023-04-12T06:36:36.313Z,1.23
2023-04-12T06:39:05.557Z,1.30
2023-04-12T06:41:34.368Z,1.50
2023-04-12T06:44:03.248Z,1.77
2023-04-12T06:46:33.690Z,1.90
2023-04-12T06:49:02.672Z,1.50
2023-04-12T06:51:31.607Z,1.50
2023-04-12T06:54:00.592Z,1.60
2023-04-12T06:56:29.355Z,1.35
2023-04-12T06:58:59.126Z,1.65
2023-04-12T07:01:28.159Z,1.58
2023-04-12T07:03:59.558Z,1.80
2023-04-12T07:06:29.361Z,1.77
2023-04-12T07:08:58.620Z,1.50
2023-04-12T07:11:28.374Z,1.80
2023-04-12T07:13:59.206Z,1.90
2023-04-12T07:16:28.244Z,2.08
2023-04-12T07:18:58.969Z,1.73
2023-04-12T07:21:28.307Z,2.00
2023-04-12T07:23:59.813Z,1.88
2023-04-12T07:26:28.734Z,2.00
2023-04-12T07:28:57.807Z,1.67
2023-04-12T07:31:26.801Z,1.90
2023-04-12T07:33:56.269Z,1.70
2023-04-12T07:36:27.512Z,1.70
2023-04-12T07:38:56.879Z,1.73
2023-04-12T07:41:25.991Z,1.35
2023-04-12T07:43:54.927Z,1.58
2023-04-12T07:46:23.964Z,1.75
2023-04-12T07:48:53.548Z,1.88
2023-04-12T07:51:22.267Z,1.70
2023-04-12T07:53:52.484Z,1.40
2023-04-12T07:56:21.298Z,2.20
2023-04-12T07:58:50.157Z,1.95
2023-04-12T08:01:19.004Z,1.80
2023-04-12T08:03:49.137Z,1.83
2023-04-12T08:06:18.442Z,2.00
2023-04-12T08:08:47.319Z,1.80
2023-04-12T08:11:17.584Z,1.50
2023-04-12T08:13:46.585Z,1.60
2023-04-12T08:16:15.863Z,1.50
2023-04-12T08:18:44.740Z,1.67
2023-04-12T08:21:13.618Z,1.52
2023-04-12T08:23:42.492Z,1.50
2023-04-12T08:26:11.446Z,1.52
2023-04-12T08:28:41.637Z,1.27
2023-04-12T08:31:10.703Z,1.10
2023-04-12T08:33:39.512Z,1.35
2023-04-12T08:36:09.786Z,1.20
2023-04-12T08:38:45.670Z,1.60
2023-04-12T08:41:15.646Z,1.42
2023-04-12T08:43:47.698Z,1.45
2023-04-12T08:46:17.500Z,1.48
2023-04-12T08:48:54.189Z,1.40
2023-04-12T08:51:23.962Z,1.70
2023-04-12T08:53:54.181Z,1.70
2023-04-12T08:56:25.163Z,1.17
2023-04-12T08:58:56.296Z,1.40
2023-04-12T09:01:25.191Z,1.45
2023-04-12T09:03:54.104Z,1.25
2023-04-12T09:06:23.352Z,1.40
2023-04-12T09:08:57.097Z,2.30
2023-04-12T09:11:28.771Z,2.42
2023-04-12T09:14:00.064Z,1.40
2023-04-12T09:16:40.315Z,1.42
2023-04-12T09:19:10.163Z,1.40
2023-04-12T09:21:53.652Z,1.25
2023-04-12T09:24:24.375Z,1.30
2023-04-12T09:27:04.513Z,1.20
2023-04-12T09:29:35.336Z,1.38
2023-04-12T09:32:07.634Z,1.20
2023-04-12T09:34:38.929Z,1.63
2023-04-12T09:37:26.429Z,1.50
2023-04-12T09:40:02.600Z,1.00
2023-04-12T09:42:34.445Z,1.20
2023-04-12T09:45:25.907Z,1.00
2023-04-12T09:47:58.459Z,0.90
2023-04-12T09:50:49.602Z,1.13
2023-04-12T09:53:20.228Z,1.40
2023-04-12T09:55:51.186Z,1.00
2023-04-12T09:58:22.117Z,1.40
2023-04-12T10:00:53.154Z,1.23
2023-04-12T10:03:22.249Z,1.38
2023-04-12T10:05:51.198Z,1.27
2023-04-12T10:08:21.425Z,1.10
2023-04-12T10:10:50.512Z,0.98
2023-04-12T10:13:21.028Z,1.20
2023-04-12T10:15:53.568Z,0.95
2023-04-12T10:18:25.219Z,1.13
2023-04-12T10:20:54.779Z,1.10
2023-04-12T10:23:24.196Z,1.20
2023-04-12T10:25:58.293Z,0.77
2023-04-12T10:28:27.360Z,1.10
2023-04-12T10:31:02.022Z,0.85
2023-04-12T10:33:32.800Z,0.80
2023-04-12T10:36:08.713Z,0.98
2023-04-12T10:38:48.755Z,1.27
2023-04-12T10:41:19.696Z,1.30
2023-04-12T10:43:49.428Z,0.90
2023-04-12T10:46:51.570Z,1.20
2023-04-12T10:49:20.842Z,1.10
2023-04-12T10:52:19.724Z,0.80
2023-04-12T10:54:48.511Z,1.02
2023-04-12T10:57:49.705Z,0.95
2023-04-12T11:00:19.061Z,1.17
2023-04-12T11:03:12.536Z,0.82
2023-04-12T11:06:16.314Z,0.95
2023-04-12T11:08:52.213Z,1.00
2023-04-12T11:11:22.787Z,1.00
2023-04-12T11:13:59.340Z,1.10
2023-04-12T11:16:28.209Z,0.90
2023-04-12T11:18:59.241Z,1.00
2023-04-12T11:21:29.410Z,1.00
2023-04-12T11:24:00.445Z,1.00
2023-04-12T11:26:32.889Z,0.88
2023-04-12T11:29:09.237Z,0.95
2023-04-12T11:31:40.391Z,1.00
2023-04-12T11:34:11.118Z,1.05
2023-04-12T11:36:41.304Z,1.20
2023-04-12T11:39:10.397Z,1.08
2023-04-12T11:41:39.370Z,0.90
2023-04-12T11:44:09.043Z,1.52
2023-04-12T11:46:38.162Z,1.60
2023-04-12T11:49:07.139Z,1.35
2023-04-12T11:51:37.911Z,0.77
2023-04-12T11:54:07.012Z,1.25
2023-04-12T11:56:35.962Z,1.40
2023-04-12T11:59:08.390Z,1.00
2023-04-12T12:01:41.261Z,1.10
2023-04-12T12:04:10.949Z,1.40
2023-04-12T12:06:42.212Z,2.05
2023-04-12T12:09:11.531Z,1.52
2023-04-12T12:11:40.648Z,1.52
2023-04-12T12:14:09.563Z,1.38
2023-04-12T12:16:41.605Z,1.40
2023-04-12T12:19:10.487Z,1.10
2023-04-12T12:21:43.342Z,1.27
2023-04-12T12:24:15.092Z,1.50
2023-04-12T12:26:44.684Z,1.20
2023-04-12T12:29:19.759Z,1.50
2023-04-12T12:31:49.417Z,2.28
2023-04-12T12:34:19.841Z,2.83
2023-04-12T12:36:57.256Z,2.08
2023-04-12T12:39:26.272Z,2.13
2023-04-12T12:41:58.630Z,1.90
2023-04-12T12:44:27.422Z,1.90
2023-04-12T12:47:03.420Z,2.15
2023-04-12T12:49:42.519Z,1.70
2023-04-12T12:52:13.676Z,2.28
2023-04-12T12:54:43.570Z,1.48
2023-04-12T12:57:12.512Z,1.75
2023-04-12T12:59:41.246Z,2.10
2023-04-12T13:02:13.393Z,1.70
2023-04-12T13:04:42.365Z,1.60
2023-04-12T13:07:12.651Z,1.75
2023-04-12T13:09:41.677Z,2.00
2023-04-12T13:12:10.921Z,1.67
2023-04-12T13:14:41.967Z,1.73
2023-04-12T13:17:10.805Z,1.60
2023-04-12T13:19:40.879Z,1.40
2023-04-12T13:22:11.457Z,1.42
2023-04-12T13:24:40.277Z,1.50
2023-04-12T13:27:09.942Z,7.60
2023-04-12T13:29:38.980Z,2.25
2023-04-12T13:32:08.301Z,2.80
2023-04-12T13:34:38.379Z,1.40
2023-04-12T13:37:07.707Z,1.48
2023-04-12T13:39:40.201Z,1.20
2023-04-12T13:42:18.068Z,1.17
2023-04-12T13:44:50.783Z,1.73
2023-04-12T13:47:23.763Z,3.63
2023-04-12T13:49:58.516Z,18.90
2023-04-12T13:52:44.864Z,7.38
2023-04-12T13:55:18.485Z,2.25
2023-04-12T13:57:47.329Z,2.40
2023-04-12T14:00:17.918Z,1.70
2023-04-12T14:02:46.882Z,1.38
2023-04-12T14:05:16.458Z,1.30
2023-04-12T14:07:45.343Z,1.95
2023-04-12T14:10:14.317Z,2.30
2023-04-12T14:12:44.717Z,1.52
2023-04-12T14:15:14.040Z,3.75
2023-04-12T14:17:43.205Z,2.00
2023-04-12T14:20:12.852Z,2.10
2023-04-12T14:22:41.769Z,1.60
2023-04-12T14:25:11.822Z,4.07
2023-04-12T14:27:40.501Z,1.98
2023-04-12T14:30:11.584Z,3.30
2023-04-12T14:32:41.199Z,2.85
2023-04-12T14:35:11.016Z,2.90
2023-04-12T14:37:40.743Z,4.70
2023-04-12T14:40:11.170Z,3.60
2023-04-12T14:42:39.946Z,3.35
2023-04-12T14:45:12.549Z,2.65
2023-04-12T14:47:41.890Z,2.88
2023-04-12T14:50:11.411Z,3.30
2023-04-12T14:52:40.438Z,4.47
2023-04-12T14:55:10.833Z,3.47
2023-04-12T14:57:41.498Z,3.60
2023-04-12T15:00:15.624Z,3.33
2023-04-12T15:02:46.557Z,3.42
2023-04-12T15:05:15.532Z,18.48
2023-04-12T15:07:44.282Z,10.93
2023-04-12T15:10:14.496Z,12.60
2023-04-12T15:12:43.355Z,7.70
2023-04-12T15:15:14.119Z,4.45
2023-04-12T15:17:43.144Z,4.00
2023-04-12T15:20:13.447Z,10.52
2023-04-12T15:22:42.671Z,30.00
2023-04-12T15:25:12.138Z,5.07
2023-04-12T15:27:40.885Z,3.05
2023-04-12T15:30:12.942Z,3.38
2023-04-12T15:32:43.328Z,2.83
2023-04-12T15:37:44.476Z,3.33
2023-04-12T15:40:15.870Z,4.00
2023-04-12T15:42:45.726Z,3.95
2023-04-12T15:45:14.380Z,7.90
2023-04-12T15:47:46.185Z,15.27
2023-04-12T15:50:15.115Z,11.88
2023-04-12T15:52:44.390Z,6.40
2023-04-12T15:55:13.145Z,5.32
2023-04-12T15:57:42.144Z,12.75
2023-04-12T16:00:20.954Z,7.80
2023-04-12T16:02:55.183Z,4.63
2023-04-12T16:05:26.727Z,3.10
2023-04-12T16:07:56.707Z,2.60
2023-04-12T16:10:25.573Z,2.58
2023-04-12T16:12:56.527Z,2.92
2023-04-12T16:15:25.341Z,3.47
2023-04-12T16:17:56.304Z,3.42
2023-04-12T16:20:25.601Z,2.85
2023-04-12T16:22:55.853Z,2.33
2023-04-12T16:25:27.650Z,2.70
2023-04-12T16:27:57.232Z,2.70
2023-04-12T16:30:26.190Z,3.13
2023-04-12T16:32:56.656Z,2.90
2023-04-12T16:35:26.827Z,14.52
2023-04-12T16:37:56.465Z,25.40
2023-04-12T16:40:25.998Z,5.60
2023-04-12T16:42:55.100Z,5.20
2023-04-12T16:45:24.025Z,3.78
2023-04-12T16:47:52.981Z,4.15
2023-04-12T16:50:24.491Z,3.65
2023-04-12T16:52:53.828Z,3.10
2023-04-12T16:55:22.927Z,3.90
2023-04-12T16:57:53.857Z,3.60
2023-04-12T17:00:23.817Z,3.47
2023-04-12T17:02:54.650Z,3.70
2023-04-12T17:05:25.662Z,4.10
2023-04-12T17:07:55.607Z,4.28
2023-04-12T17:10:26.901Z,5.22
2023-04-12T17:12:57.676Z,6.47
2023-04-12T17:15:28.480Z,6.70
2023-04-12T17:18:04.204Z,6.78
2023-04-12T17:20:35.428Z,5.07
2023-04-12T17:23:07.048Z,4.88
2023-04-12T17:25:36.216Z,5.93
2023-04-12T17:28:05.388Z,4.95
2023-04-12T17:30:34.524Z,4.88
2023-04-12T17:33:03.463Z,5.80
2023-04-12T17:35:33.825Z,16.42
2023-04-12T17:38:02.585Z,11.80
2023-04-12T17:40:31.470Z,6.57
2023-04-12T17:43:00.281Z,5.70
2023-04-12T17:45:29.458Z,6.15
2023-04-12T17:47:58.518Z,6.07
2023-04-12T17:50:27.890Z,5.82
2023-04-12T17:52:59.826Z,5.22
2023-04-12T17:55:28.952Z,6.28
2023-04-12T17:57:58.187Z,5.78
2023-04-12T18:00:27.225Z,6.30
2023-04-12T18:02:56.351Z,5.10
2023-04-12T18:05:25.645Z,5.93
2023-04-12T18:07:57.062Z,5.22
2023-04-12T18:10:27.675Z,5.93
2023-04-12T18:12:56.437Z,5.75
2023-04-12T18:15:25.214Z,6.45
2023-04-12T18:17:54.066Z,6.03
2023-04-12T18:20:23.265Z,6.90
2023-04-12T18:22:52.098Z,5.28
2023-04-12T18:25:21.057Z,4.95
2023-04-12T18:27:51.258Z,4.97
2023-04-12T18:30:20.227Z,4.68
2023-04-12T18:32:49.065Z,4.80
2023-04-12T18:35:18.266Z,4.93
2023-04-12T18:37:47.406Z,8.52
2023-04-12T18:40:16.811Z,18.02
2023-04-12T18:42:46.224Z,5.75
2023-04-12T18:45:16.370Z,5.15
2023-04-12T18:47:45.219Z,4.63
2023-04-12T18:50:14.159Z,4.70
2023-04-12T18:52:43.175Z,4.80
2023-04-12T18:55:12.213Z,5.10
2023-04-12T18:57:40.880Z,7.15
2023-04-12T19:00:14.477Z,9.23
2023-04-12T19:02:45.231Z,7.00
2023-04-12T19:05:15.122Z,5.88
2023-04-12T19:07:44.157Z,7.13
2023-04-12T19:10:13.785Z,5.90
2023-04-12T19:12:42.585Z,5.80
2023-04-12T19:15:12.959Z,6.22
2023-04-12T19:17:43.426Z,6.85
2023-04-12T19:20:12.714Z,15.90
2023-04-12T19:22:41.621Z,12.48
2023-04-12T19:25:11.475Z,6.45
2023-04-12T19:27:40.647Z,5.47
2023-04-12T19:30:13.051Z,5.30
2023-04-12T19:32:43.398Z,5.57
2023-04-12T19:35:12.262Z,5.82
2023-04-12T19:37:41.101Z,5.88
2023-04-12T19:40:13.772Z,5.65
2023-04-12T19:42:42.889Z,5.82
2023-04-12T19:45:11.787Z,5.78
2023-04-12T19:47:44.930Z,6.47
2023-04-12T19:50:16.935Z,10.70
2023-04-12T19:52:46.719Z,8.93
2023-04-12T19:55:17.009Z,6.55
2023-04-12T19:57:46.207Z,5.82
2023-04-12T20:00:19.802Z,6.40
2023-04-12T20:02:51.269Z,6.25
2023-04-12T20:05:22.628Z,5.95
2023-04-12T20:07:55.379Z,6.15
2023-04-12T20:10:24.305Z,6.88
2023-04-12T20:12:53.094Z,6.00
2023-04-12T20:15:21.777Z,6.03
2023-04-12T20:17:52.206Z,6.20
2023-04-12T20:20:22.981Z,6.15
2023-04-12T20:22:52.892Z,6.07
2023-04-12T20:25:21.759Z,6.15
2023-04-12T20:27:52.648Z,5.32
2023-04-12T20:30:22.834Z,7.07
2023-04-12T20:32:54.648Z,6.35
2023-04-12T20:35:35.901Z,6.35
2023-04-12T20:38:04.727Z,6.32
2023-04-12T20:40:34.521Z,6.20
2023-04-12T20:43:03.542Z,6.78
2023-04-12T20:45:32.667Z,6.13
2023-04-12T20:48:01.452Z,6.30
2023-04-12T20:50:33.094Z,5.63
2023-04-12T20:53:02.355Z,6.07
2023-04-12T20:55:34.886Z,6.05
2023-04-12T20:58:17.199Z,6.40
2023-04-12T21:00:47.632Z,5.95
2023-04-12T21:03:17.793Z,5.85
2023-04-12T21:05:50.592Z,6.00
2023-04-12T21:08:19.807Z,6.07
2023-04-12T21:10:55.090Z,6.25
2023-04-12T21:13:24.010Z,6.13
2023-04-12T21:15:56.250Z,6.25
2023-04-12T21:18:25.057Z,5.70
2023-04-12T21:21:00.189Z,5.78
2023-04-12T21:23:29.292Z,5.95
2023-04-12T21:25:59.217Z,5.90
2023-04-12T21:28:29.737Z,5.85
2023-04-12T21:30:58.578Z,5.95
2023-04-12T21:33:27.350Z,6.10
2023-04-12T21:35:58.015Z,5.43
2023-04-12T21:38:26.710Z,6.25
2023-04-12T21:40:58.862Z,6.15
2023-04-12T21:43:27.745Z,5.68
2023-04-12T21:45:56.637Z,5.97
2023-04-12T21:48:25.473Z,5.80
2023-04-12T21:50:54.166Z,5.80
2023-04-12T21:53:24.296Z,5.93
2023-04-12T21:55:53.097Z,6.25
2023-04-12T21:58:21.791Z,5.80
2023-04-12T22:00:50.546Z,6.18
2023-04-12T22:03:19.404Z,6.03
2023-04-12T22:06:00.792Z,5.72
2023-04-12T22:08:34.318Z,6.45
2023-04-12T22:11:03.182Z,5.70
2023-04-12T22:13:31.889Z,5.82
2023-04-12T22:16:02.555Z,5.78
2023-04-12T22:18:32.252Z,5.40
2023-04-12T22:21:04.170Z,5.85
2023-04-12T22:23:34.336Z,5.65
2023-04-12T22:26:05.025Z,6.22
2023-04-12T22:28:34.028Z,6.10
2023-04-12T22:31:02.742Z,6.00
2023-04-12T22:33:31.575Z,6.13
2023-04-12T22:36:02.227Z,6.07
2023-04-12T22:38:31.070Z,6.15
2023-04-12T22:41:02.469Z,5.88
2023-04-12T22:43:38.236Z,5.85
2023-04-12T22:46:07.420Z,6.13
2023-04-12T22:48:36.127Z,8.07
2023-04-12T22:51:05.052Z,6.60
2023-04-12T22:53:34.441Z,6.80
2023-04-12T22:56:04.738Z,6.85
2023-04-12T22:58:33.421Z,5.80
2023-04-12T23:01:04.395Z,6.13
2023-04-12T23:03:33.355Z,6.22
2023-04-12T23:06:02.184Z,5.85
2023-04-12T23:08:30.892Z,5.85
2023-04-12T23:11:02.629Z,5.78
2023-04-12T23:13:34.914Z,5.40
2023-04-12T23:16:05.091Z,6.13
2023-04-12T23:18:33.904Z,5.90
2023-04-12T23:21:02.917Z,5.93
2023-04-12T23:23:31.946Z,5.80
2023-04-12T23:26:01.126Z,5.40
2023-04-12T23:28:31.330Z,5.55
2023-04-12T23:31:02.211Z,6.80
2023-04-12T23:33:31.051Z,6.45
2023-04-12T23:36:02.928Z,6.85
2023-04-12T23:38:33.923Z,6.22
2023-04-12T23:41:04.485Z,6.20
2023-04-12T23:43:35.730Z,6.53
2023-04-12T23:46:05.613Z,6.68
2023-04-12T23:48:34.498Z,6.40
2023-04-12T23:51:03.227Z,6.50
2023-04-12T23:53:32.235Z,5.85
2023-04-12T23:56:01.234Z,5.45
2023-04-12T23:58:29.958Z,5.22
